• Join FlightAware (Why Join?)
  • Login
  • US Flag 
07:12PM EDT


 

Airport Tracker/Info


-or-


 

Live Flight TrackerFlight Track Log ✈ EJA826 ✈ 16-May-2013 ✈ KSAF - KGEU

Flight Track Log - Related Links

Times and Time Zones

All times are in EDT time to prevent confusion due to time zone crossing. See the EJA826 flight status page for this flight to view local times or setup timezone preferences in your user account.

Time Position Orientation Groundspeed Altitude Reporting Facility
EDT Latitude Longitude Course Direction KTS MPH feet Rate Location/Type
03:45PM 35.5964 -106.1075 265° West 156 180 7,900  Level Albuquerque Center
03:46PM 35.5408 -106.1511 213° Southwest 193 222 11,900 3,240 Climbing Albuquerque Center
03:47PM 35.5275 -106.2244 257° West 225 259 14,700 2,520 Climbing Albuquerque Center
03:48PM 35.5242 -106.3153 267° West 259 298 17,200 2,520 Climbing Albuquerque Center
03:49PM 35.5225 -106.4111 269° West 276 318 20,000 2,700 Climbing Albuquerque Center
03:50PM 35.5078 -106.7341 265° West  Level FlightAware Approximate
03:50PM 35.5219 -106.5089 270° West 284 327 22,900  Level Albuquerque Center
03:51PM 35.5208 -106.6097 269° West 293 337 25,500 2,280 Climbing Albuquerque Center
03:52PM 35.5203 -106.7406 270° West 316 364 27,700 1,200 Climbing Albuquerque Center
03:53PM 35.5181 -106.8628 269° West 350 403 28,000 960 Climbing Albuquerque Center
03:54PM 35.5164 -106.9933 269° West 377 434 29,800 1,680 Climbing Albuquerque Center
03:55PM 35.5144 -107.1206 269° West 378 435 31,500 1,620 Climbing Albuquerque Center
03:56PM 35.5131 -107.2669 269° West 374 430 33,200 1,200 Climbing Albuquerque Center
03:57PM 35.5106 -107.3903 269° West 374 430 34,000 360 Climbing Albuquerque Center
03:59PM 35.5081 -107.5442 269° West 397 457 34,000  Level Albuquerque Center
04:00PM 35.5047 -107.6786 268° West 408 470 34,000  Level Albuquerque Center
04:01PM 35.5019 -107.8375 269° West 414 476 34,000  Level Albuquerque Center
04:02PM 35.4989 -107.9703 268° West 409 471 34,000  Level Albuquerque Center
04:03PM 35.4950 -108.1008 268° West 402 463 34,000 720 Level Albuquerque Center
04:04PM 35.4922 -108.2497 269° West 394 453 35,500 960 Climbing Albuquerque Center
04:05PM 35.4903 -108.3778 269° West 390 449 36,000 240 Climbing Albuquerque Center
04:06PM 35.4858 -108.5303 268° West 396 456 36,000  Level Albuquerque Center
04:07PM 35.4819 -108.6583 268° West 394 453 36,000  Level Albuquerque Center
04:08PM 35.4778 -108.8056 268° West 387 445 36,000  Level Albuquerque Center
04:09PM 35.4708 -108.9286 266° West 379 436 36,000  Level Albuquerque Center
04:10PM 35.4550 -109.0714 262° West 377 434 36,000  Level Albuquerque Center
04:11PM 35.4428 -109.1928 263° West 376 433 36,000  Level Albuquerque Center
04:12PM 35.4294 -109.3150 262° West 376 433 36,000  Level Albuquerque Center
04:13PM 35.4144 -109.4572 263° West 375 432 36,000  Level Albuquerque Center
04:14PM 35.3997 -109.5778 262° West 373 429 36,000  Level Albuquerque Center
04:15PM 35.3833 -109.7175 262° West 372 428 36,000  Level Albuquerque Center
04:16PM 35.3703 -109.8364 262° West 370 426 36,000  Level Albuquerque Center
04:17PM 35.3536 -109.9753 262° West 368 423 36,000  Level Albuquerque Center
04:18PM 35.3392 -110.0947 262° West 368 423 36,000 -300 Level Albuquerque Center
04:19PM 35.3219 -110.2353 261° West 371 427 35,400 -900 Descending Albuquerque Center
04:20PM 35.3064 -110.3619 261° West 385 443 34,200 -1,260 Descending Albuquerque Center
04:21PM 35.2881 -110.5142 262° West 401 461 32,800 -1,260 Descending Albuquerque Center
04:22PM 35.2733 -110.6456 262° West 405 466 31,700 -1,380 Descending Albuquerque Center
04:23PM 35.2544 -110.7956 261° West 402 463 30,000 -1,560 Descending Albuquerque Center
04:24PM 35.2367 -110.9253 261° West 404 465 28,500 -1,500 Descending Albuquerque Center
04:25PM 35.1769 -111.0314 235° Southwest 403 464 26,900 -1,620 Descending Albuquerque Center
04:26PM 35.0819 -111.1242 219° Southwest 400 460 25,200 -1,440 Descending Albuquerque Center
04:27PM 34.9953 -111.2039 217° Southwest 394 453 24,000 -600 Descending Albuquerque Center
04:28PM 34.9117 -111.2792 216° Southwest 380 437 24,000  Level Albuquerque Center
04:30PM 34.8281 -111.3553 217° Southwest 376 433 24,000 -240 Level Albuquerque Center
04:31PM 34.7297 -111.4453 217° Southwest 372 428 23,600 -1,140 Descending Albuquerque Center
04:32PM 34.6511 -111.5164 217° Southwest 359 413 21,700 -1,860 Descending Albuquerque Center
04:34PM 34.4944 -111.6581 217° Southwest 352 405 18,000 -2,040 Descending Albuquerque Center
04:35PM 34.4194 -111.7269 217° Southwest 345 397 15,500 -2,100 Descending Albuquerque Center
04:36PM 34.3542 -111.7839 216° Southwest 301 346 13,700 -1,800 Descending Albuquerque Center
04:37PM 34.2775 -111.8519 216° Southwest 289 333 11,800 -1,320 Descending Albuquerque Center
04:38PM 34.2161 -111.9069 217° Southwest 282 325 11,000 -600 Descending Albuquerque Center
04:39PM 34.1433 -111.9253 192° South 276 318 10,600 -960 Descending Albuquerque Center
04:40PM 34.0700 -111.9303 183° South 267 307 9,100 -1,560 Descending Albuquerque Center
04:41PM 33.9983 -111.9819 211° Southwest 255 293 7,400 -1,020 Descending Albuquerque Center
04:42PM 33.9492 -112.0231 215° Southwest 219 252 7,100 -360 Descending Albuquerque Center
04:43PM 33.9153 -112.0586 221° Southwest 277 319 6,900 -600 Descending Albuquerque Center
04:43PM 33.8953 -112.0667 198° South 231 266 6,500 -1,020 Descending Albuquerque Center
04:43PM 33.8642 -112.0947 217° Southwest 253 291 6,000 -780 Descending Albuquerque Center
04:44PM 33.8403 -112.1106 209° Southwest 237 273 5,700 -900 Descending Albuquerque Center
04:45PM 33.8022 -112.1417 214° Southwest 233 268 5,000 -720 Descending Albuquerque Center
04:45PM 33.7872 -112.1525 211° Southwest 231 266 5,000  Level Albuquerque Center
04:46PM 33.7531 -112.1772 211° Southwest 190 219 5,000 -300 Level Albuquerque Center
04:46PM 33.7161 -112.1969 204° Southwest 175 201 4,600 -300 Descending Albuquerque Center
04:47PM 33.6825 -112.2119 200° South 193 222 4,600 -420 Level Albuquerque Center
04:47PM 33.6647 -112.2203 201° Southwest 191 220 4,200 -1,020 Descending Albuquerque Center
04:48PM 33.6361 -112.2303 196° South 178 205 3,600 -900 Descending Albuquerque Center
04:49PM 33.6197 -112.2419 211° Southwest 152 175 3,200 -900 Descending Albuquerque Center
04:49PM 33.6006 -112.2508 201° Southwest 146 168 2,700 -840 Descending Albuquerque Center
04:50PM 33.5831 -112.2642 212° Southwest 143 165 2,400 -600 Descending Albuquerque Center
04:50PM 33.5672 -112.2714 201° Southwest 136 157 2,100 -840 Descending Albuquerque Center
04:51PM 33.5522 -112.2822 211° Southwest 130 150 1,600 -900 Descending Albuquerque Center
04:51PM 33.5358 -112.2892 199° South 127 146 1,200 -600 Descending Albuquerque Center